Time;durP1;ratioP1;P1;durP2;ratioP2;P2;SDS_P1;SDS_P2;PMS_P1;PMS_P2;Temp;Humidity;BMP_temperature;BMP_pressure;BME280_temperature;BME280_humidity;BME280_pressure;Samples;Min_cycle;Max_cycle;Signal;HPM_P1;HPM_P2
2023/02/07 00:00:38;;;;;;;13.87;8.10;;;-2.00;99.70;;;;;;5004579;28;20194;-62
2023/02/07 00:03:03;;;;;;;13.43;8.10;;;-2.10;99.80;;;;;;5006104;28;20578;-63
2023/02/07 00:05:29;;;;;;;18.47;8.50;;;-2.00;99.30;;;;;;5010763;28;20190;-62
2023/02/07 00:07:55;;;;;;;18.33;10.33;;;-2.10;99.20;;;;;;5006758;28;20584;-63
2023/02/07 00:10:21;;;;;;;15.10;8.70;;;-2.10;99.10;;;;;;5013739;28;20604;-62
2023/02/07 00:12:46;;;;;;;16.27;8.80;;;-2.10;99.20;;;;;;5004766;28;20198;-62
2023/02/07 00:15:12;;;;;;;16.23;8.87;;;-2.10;99.00;;;;;;5007181;28;20187;-62
2023/02/07 00:17:38;;;;;;;15.20;8.93;;;-2.10;99.10;;;;;;5010895;28;20187;-62
2023/02/07 00:20:04;;;;;;;18.87;8.83;;;-2.10;99.10;;;;;;5012309;28;20469;-62
2023/02/07 00:22:30;;;;;;;15.33;8.90;;;-2.10;99.20;;;;;;5005536;28;20209;-59
2023/02/07 00:24:56;;;;;;;18.10;8.80;;;-2.10;99.30;;;;;;5008998;28;20499;-62
2023/02/07 00:27:21;;;;;;;16.53;9.47;;;-2.10;99.40;;;;;;5007931;28;20916;-62
2023/02/07 00:29:47;;;;;;;14.53;8.60;;;-2.10;98.90;;;;;;5011232;28;20182;-62
2023/02/07 00:32:13;;;;;;;16.40;9.30;;;-2.10;99.00;;;;;;5005687;28;20220;-62
2023/02/07 00:34:39;;;;;;;19.50;9.03;;;-2.20;99.40;;;;;;5008356;28;20182;-62
2023/02/07 00:37:05;;;;;;;19.73;10.00;;;-2.20;99.70;;;;;;5007349;28;20184;-62
2023/02/07 00:39:31;;;;;;;18.97;9.90;;;-2.20;99.60;;;;;;5011181;28;20440;-63
2023/02/07 00:41:57;;;;;;;21.40;10.77;;;-2.20;99.90;;;;;;5005585;28;20475;-62
2023/02/07 00:44:22;;;;;;;21.00;10.93;;;-2.20;99.90;;;;;;5004080;28;20210;-62
2023/02/07 00:46:48;;;;;;;16.50;9.63;;;-2.20;99.90;;;;;;5011375;28;20550;-63
2023/02/07 00:49:14;;;;;;;17.20;10.57;;;-2.20;99.90;;;;;;5003830;28;20179;-61
2023/02/07 00:51:39;;;;;;;19.30;11.20;;;-2.20;99.90;;;;;;5005322;28;20245;-62
2023/02/07 00:54:05;;;;;;;17.37;9.37;;;-2.20;99.90;;;;;;5013396;28;20626;-62
2023/02/07 00:56:32;;;;;;;16.90;9.80;;;-2.20;99.90;;;;;;5006926;28;20187;-61
2023/02/07 00:58:58;;;;;;;16.57;9.70;;;-2.30;99.90;;;;;;5004617;28;20468;-63
2023/02/07 01:01:26;;;;;;;19.50;11.03;;;-2.30;99.90;;;;;;5008301;28;20531;-62
2023/02/07 01:03:52;;;;;;;17.77;11.33;;;-2.20;99.90;;;;;;5009393;28;20516;-62
2023/02/07 01:06:18;;;;;;;17.13;10.27;;;-2.30;99.90;;;;;;5008788;28;20466;-62
2023/02/07 01:08:44;;;;;;;23.30;11.90;;;-2.20;99.90;;;;;;5010926;28;20492;-63
2023/02/07 01:11:13;;;;;;;20.90;11.53;;;-2.30;99.90;;;;;;5013266;28;20201;-62
2023/02/07 01:13:42;;;;;;;20.77;10.00;;;-2.20;99.90;;;;;;5010079;28;20478;-62
2023/02/07 01:16:23;;;;;;;17.60;10.10;;;-2.20;99.90;;;;;;5009836;28;20431;-62
2023/02/07 01:18:49;;;;;;;20.53;9.87;;;-2.30;99.90;;;;;;5011149;28;20478;-62
2023/02/07 01:21:17;;;;;;;16.10;10.03;;;-2.30;99.90;;;;;;5015952;28;20453;-62
2023/02/07 01:23:43;;;;;;;16.80;9.43;;;-2.30;99.90;;;;;;5008845;28;20193;-63
2023/02/07 01:26:09;;;;;;;20.73;9.77;;;-2.30;99.90;;;;;;5015489;28;20515;-63
2023/02/07 01:28:34;;;;;;;19.47;9.87;;;-2.30;99.90;;;;;;5012529;28;20186;-63
2023/02/07 01:31:06;;;;;;;21.80;11.83;;;-2.30;99.90;;;;;;5013150;28;20205;-62
2023/02/07 01:33:31;;;;;;;18.30;10.30;;;-2.40;99.90;;;;;;5004432;28;20769;-61
2023/02/07 01:35:57;;;;;;;22.10;10.47;;;-2.40;99.70;;;;;;5013269;28;20490;-62
2023/02/07 01:38:23;;;;;;;18.57;9.87;;;-2.40;99.60;;;;;;5006652;28;20182;-64
2023/02/07 01:40:48;;;;;;;16.07;9.97;;;-2.40;99.60;;;;;;5016635;28;20650;-62
2023/02/07 01:43:21;;;;;;;15.10;9.10;;;-2.40;97.90;;;;;;5007812;28;20308;-61
2023/02/07 01:45:47;;;;;;;16.47;8.87;;;-2.40;97.50;;;;;;5010492;28;20189;-62
2023/02/07 01:48:19;;;;;;;20.03;9.93;;;-2.40;97.20;;;;;;5004981;28;20828;-62
2023/02/07 01:50:48;;;;;;;14.20;8.13;;;-2.40;96.90;;;;;;5019655;28;20262;-62
2023/02/07 01:53:16;;;;;;;18.77;10.33;;;-2.40;97.10;;;;;;5011467;28;20429;-62
2023/02/07 01:55:43;;;;;;;16.07;8.90;;;-2.40;97.10;;;;;;5006379;28;20488;-61
2023/02/07 01:58:09;;;;;;;16.50;10.10;;;-2.50;96.30;;;;;;5014319;28;20437;-62
2023/02/07 02:00:35;;;;;;;20.20;9.53;;;-2.50;95.70;;;;;;5007084;28;20440;-63
2023/02/07 02:03:02;;;;;;;18.40;9.33;;;-2.50;95.80;;;;;;5004803;28;20211;-63
2023/02/07 02:05:30;;;;;;;16.07;10.37;;;-2.60;95.10;;;;;;5008484;28;20439;-61
2023/02/07 02:07:55;;;;;;;24.53;11.40;;;-2.70;95.30;;;;;;5007710;28;20461;-61
2023/02/07 02:10:27;;;;;;;18.47;9.93;;;-2.70;95.90;;;;;;5010069;28;20513;-62
2023/02/07 02:13:21;;;;;;;20.23;10.90;;;-2.70;96.20;;;;;;5009067;28;20214;-64
2023/02/07 02:15:58;;;;;;;22.00;11.20;;;-2.70;96.30;;;;;;5007703;28;20437;-62
2023/02/07 02:19:15;;;;;;;19.07;10.13;;;-2.80;95.60;;;;;;5010371;28;20484;-61
2023/02/07 02:22:17;;;;;;;23.47;11.73;;;-2.80;96.50;;;;;;4977728;28;20562;-61
2023/02/07 02:25:10;;;;;;;19.47;10.83;;;-2.80;97.40;;;;;;5004556;28;20486;-62
2023/02/07 02:27:36;;;;;;;23.43;11.20;;;-2.90;97.10;;;;;;5021086;28;20472;-62
2023/02/07 02:30:30;;;;;;;22.50;11.03;;;-2.90;97.40;;;;;;5010234;28;20440;-62
2023/02/07 02:33:18;;;;;;;17.47;10.77;;;-2.90;97.20;;;;;;5006108;28;20662;-61
2023/02/07 02:36:01;;;;;;;21.87;12.00;;;-2.90;97.60;;;;;;5014540;28;20456;-61
2023/02/07 02:38:42;;;;;;;23.10;11.90;;;-3.00;98.20;;;;;;5007856;28;20428;-63
2023/02/07 02:41:16;;;;;;;31.97;11.60;;;-2.90;99.30;;;;;;5001369;28;20579;-63
2023/02/07 02:43:45;;;;;;;20.60;12.60;;;-2.90;99.20;;;;;;5006051;28;20436;-62
2023/02/07 02:46:20;;;;;;;17.63;10.80;;;-2.80;98.80;;;;;;5007495;28;20437;-62
2023/02/07 02:48:46;;;;;;;24.30;12.80;;;-2.90;98.10;;;;;;5008479;28;20948;-61
2023/02/07 02:51:12;;;;;;;19.20;10.53;;;-2.90;98.70;;;;;;5006976;28;20472;-64
2023/02/07 02:53:38;;;;;;;22.63;11.63;;;-2.90;99.00;;;;;;5010856;28;20469;-64
2023/02/07 02:56:21;;;;;;;24.80;12.53;;;-2.90;98.80;;;;;;5004510;28;20441;-61
2023/02/07 02:59:20;;;;;;;23.43;11.43;;;-2.90;99.00;;;;;;5003665;28;20182;-62
2023/02/07 03:02:04;;;;;;;20.97;11.43;;;-3.00;99.10;;;;;;5002578;28;20651;-61
2023/02/07 03:04:48;;;;;;;19.87;11.13;;;-3.00;99.90;;;;;;5006778;28;20468;-62
2023/02/07 03:07:33;;;;;;;19.33;11.77;;;-3.00;99.90;;;;;;5012442;28;20803;-62
2023/02/07 03:10:23;;;;;;;18.90;11.77;;;-3.00;99.90;;;;;;5006000;28;20515;-62
2023/02/07 03:13:01;;;;;;;22.50;11.80;;;-3.00;99.90;;;;;;5009309;28;20463;-62
2023/02/07 03:15:33;;;;;;;20.83;12.33;;;-3.00;99.90;;;;;;5000301;28;21014;-65
2023/02/07 03:18:07;;;;;;;25.07;12.30;;;-3.00;99.90;;;;;;5002332;28;20794;-63
2023/02/07 03:20:48;;;;;;;24.40;13.30;;;-3.00;99.90;;;;;;5008910;28;20436;-61
2023/02/07 03:23:16;;;;;;;20.10;11.87;;;-2.90;99.90;;;;;;5005734;28;20840;-64
2023/02/07 03:25:44;;;;;;;23.03;13.20;;;-2.90;99.90;;;;;;5010361;28;21013;-61
2023/02/07 03:28:11;;;;;;;29.20;14.80;;;-2.90;99.50;;;;;;5007306;28;20468;-62
2023/02/07 03:30:39;;;;;;;26.57;14.40;;;-2.90;99.20;;;;;;5004216;28;20447;-63
2023/02/07 03:33:10;;;;;;;23.90;13.40;;;-2.90;99.20;;;;;;5006064;28;20444;-62
2023/02/07 03:36:07;;;;;;;27.40;13.07;;;-3.00;98.70;;;;;;5005116;28;20515;-64
2023/02/07 03:38:34;;;;;;;27.07;13.00;;;-3.00;98.60;;;;;;5000763;28;20445;-63
2023/02/07 03:41:08;;;;;;;22.53;13.30;;;-3.10;98.50;;;;;;5000072;28;20433;-64
2023/02/07 03:43:37;;;;;;;21.93;12.87;;;-3.10;98.80;;;;;;5007123;28;20860;-62
2023/02/07 03:46:03;;;;;;;27.57;14.20;;;-3.20;99.10;;;;;;5003030;28;20420;-62
2023/02/07 03:48:28;;;;;;;27.80;13.50;;;-3.20;99.30;;;;;;5008615;28;20463;-64
2023/02/07 03:50:54;;;;;;;24.00;13.67;;;-3.20;98.80;;;;;;5014231;28;20944;-62
2023/02/07 03:53:20;;;;;;;25.70;13.37;;;-3.20;98.80;;;;;;5004648;28;20261;-61
2023/02/07 03:55:46;;;;;;;27.77;12.50;;;-3.20;99.00;;;;;;5018176;28;20178;-62
2023/02/07 03:58:11;;;;;;;24.90;12.50;;;-3.20;98.50;;;;;;5012716;28;20496;-62
2023/02/07 04:00:37;;;;;;;22.97;12.70;;;-3.20;98.10;;;;;;5002076;28;20199;-62
2023/02/07 04:03:04;;;;;;;23.40;12.43;;;-3.20;98.20;;;;;;5011129;28;20227;-63
2023/02/07 04:05:29;;;;;;;23.10;12.27;;;-3.20;98.90;;;;;;5005930;28;20248;-62
2023/02/07 04:07:55;;;;;;;25.40;14.37;;;-3.20;99.10;;;;;;5011472;28;20485;-62
2023/02/07 04:10:21;;;;;;;22.30;12.83;;;-3.20;99.20;;;;;;5005450;28;20169;-64
2023/02/07 04:12:46;;;;;;;23.30;13.40;;;-3.20;99.20;;;;;;5004553;28;20230;-63
2023/02/07 04:15:12;;;;;;;21.30;11.57;;;-3.20;99.20;;;;;;5006001;28;20208;-61
2023/02/07 04:17:38;;;;;;;25.63;12.60;;;-3.20;99.60;;;;;;5011292;28;20186;-61
2023/02/07 04:20:05;;;;;;;29.23;14.10;;;-3.20;99.90;;;;;;5006999;28;20646;-62
2023/02/07 04:22:31;;;;;;;21.83;13.23;;;-3.20;99.90;;;;;;5009685;28;20458;-62
2023/02/07 04:24:56;;;;;;;24.70;13.03;;;-3.20;99.90;;;;;;5009254;28;20431;-62
2023/02/07 04:27:23;;;;;;;23.83;13.80;;;-3.10;99.90;;;;;;5013201;28;20540;-63
2023/02/07 04:29:48;;;;;;;24.93;13.90;;;-3.20;99.90;;;;;;5006498;28;20267;-65
2023/02/07 04:32:14;;;;;;;34.50;15.33;;;-3.20;99.90;;;;;;5055369;22;20585;-60
2023/02/07 04:34:40;;;;;;;30.40;14.47;;;-3.20;99.90;;;;;;5050868;28;20176;-58
2023/02/07 04:37:05;;;;;;;27.33;14.87;;;-3.30;99.90;;;;;;5048510;28;20178;-61
2023/02/07 04:39:31;;;;;;;32.00;15.77;;;-3.30;99.90;;;;;;5045180;28;20184;-60
2023/02/07 04:41:57;;;;;;;31.87;16.60;;;-3.30;99.90;;;;;;5048101;28;20205;-61
2023/02/07 04:44:22;;;;;;;26.70;14.73;;;-3.30;99.90;;;;;;5046940;28;20626;-60
2023/02/07 04:46:48;;;;;;;28.17;15.37;;;-3.40;99.90;;;;;;5043621;28;20529;-60
2023/02/07 04:49:14;;;;;;;27.03;15.40;;;-3.40;99.90;;;;;;5045194;28;20200;-60
2023/02/07 04:51:39;;;;;;;32.20;16.23;;;-3.40;99.90;;;;;;5041579;28;20743;-57
2023/02/07 04:54:05;;;;;;;25.67;15.70;;;-3.50;99.90;;;;;;5041463;28;20641;-60
2023/02/07 04:56:31;;;;;;;30.43;14.70;;;-3.40;99.90;;;;;;5044522;28;20194;-62
2023/02/07 04:58:56;;;;;;;25.00;15.00;;;-3.50;99.90;;;;;;5044478;28;20256;-60
2023/02/07 05:01:22;;;;;;;24.17;13.40;;;-3.40;99.90;;;;;;5037320;28;20208;-61
2023/02/07 05:03:47;;;;;;;40.30;15.63;;;-3.50;99.90;;;;;;5041769;28;20171;-60
2023/02/07 05:06:13;;;;;;;24.10;14.50;;;-3.50;99.90;;;;;;5049730;28;20184;-53
2023/02/07 05:08:39;;;;;;;30.83;15.33;;;-3.40;99.90;;;;;;5042062;28;20608;-56
2023/02/07 05:11:05;;;;;;;29.13;14.83;;;-3.40;99.90;;;;;;5030491;28;20190;-58
2023/02/07 05:13:31;;;;;;;29.27;14.80;;;-3.20;99.90;;;;;;5032852;28;20184;-57
2023/02/07 05:15:57;;;;;;;29.13;14.80;;;-3.00;99.90;;;;;;5019060;28;20439;-56
2023/02/07 05:18:22;;;;;;;33.37;15.20;;;-3.00;99.20;;;;;;5035602;28;20446;-56
2023/02/07 05:20:48;;;;;;;30.00;14.83;;;-3.00;98.10;;;;;;5032834;28;20192;-59
2023/02/07 05:23:14;;;;;;;27.50;15.07;;;-3.10;97.40;;;;;;5040777;28;20270;-58
2023/02/07 05:25:41;;;;;;;27.87;15.77;;;-3.20;96.80;;;;;;5034747;28;20188;-56
2023/02/07 05:28:07;;;;;;;32.17;15.40;;;-3.30;97.70;;;;;;5034510;28;20600;-59
2023/02/07 05:30:32;;;;;;;29.10;15.23;;;-3.30;98.10;;;;;;5032612;28;20546;-52
2023/02/07 05:33:07;;;;;;;28.13;15.37;;;-3.30;98.00;;;;;;5041271;28;22209;-59
2023/02/07 05:35:42;;;;;;;26.27;15.10;;;-3.30;98.10;;;;;;5042439;28;20226;-56
2023/02/07 05:38:16;;;;;;;28.20;15.57;;;-3.40;97.80;;;;;;5041364;28;20551;-56
2023/02/07 05:40:42;;;;;;;28.77;15.50;;;-3.40;97.30;;;;;;5041120;28;20982;-50
2023/02/07 05:43:09;;;;;;;23.20;14.47;;;-3.40;98.10;;;;;;5041348;28;20550;-51
2023/02/07 05:45:34;;;;;;;25.33;15.27;;;-3.40;98.30;;;;;;5039339;28;20512;-57
2023/02/07 05:48:00;;;;;;;25.20;14.00;;;-3.40;97.80;;;;;;5040521;28;20469;-56
2023/02/07 05:50:26;;;;;;;28.70;15.77;;;-3.50;97.90;;;;;;5042104;28;20188;-53
2023/02/07 05:52:52;;;;;;;27.70;15.37;;;-3.50;97.70;;;;;;5041505;28;20451;-55
2023/02/07 05:55:18;;;;;;;27.90;15.73;;;-3.50;97.70;;;;;;5038011;28;20629;-56
2023/02/07 05:57:44;;;;;;;28.47;15.77;;;-3.50;97.70;;;;;;5034014;28;20639;-57
2023/02/07 06:00:12;;;;;;;29.30;16.20;;;-3.60;97.40;;;;;;5035894;28;20471;-56
2023/02/07 06:02:42;;;;;;;27.83;13.30;;;-3.60;98.10;;;;;;5041719;28;20536;-57
2023/02/07 06:05:10;;;;;;;26.37;15.40;;;-3.60;98.50;;;;;;5040060;28;20455;-57
2023/02/07 06:07:36;;;;;;;29.37;15.73;;;-3.60;98.30;;;;;;5046210;28;20473;-56
2023/02/07 06:10:04;;;;;;;34.17;16.00;;;-3.60;98.10;;;;;;5042117;28;20430;-57
2023/02/07 06:12:30;;;;;;;25.43;16.57;;;-3.70;98.40;;;;;;5043682;28;20209;-56
2023/02/07 06:14:55;;;;;;;27.00;15.60;;;-3.70;98.50;;;;;;5048285;28;20914;-56
2023/02/07 06:17:21;;;;;;;27.47;14.93;;;-3.70;98.50;;;;;;5040827;28;20804;-55
2023/02/07 06:19:47;;;;;;;28.57;14.63;;;-3.70;98.60;;;;;;5039067;28;20730;-55
2023/02/07 06:22:13;;;;;;;28.90;15.97;;;-3.70;98.40;;;;;;5047225;28;20233;-58
2023/02/07 06:24:39;;;;;;;27.30;16.73;;;-3.70;98.00;;;;;;5052435;28;20505;-57
2023/02/07 06:27:05;;;;;;;27.57;16.63;;;-3.70;98.20;;;;;;5048739;28;20482;-58
2023/02/07 06:29:30;;;;;;;32.90;16.37;;;-3.70;98.00;;;;;;5038973;28;20184;-58
2023/02/07 06:31:56;;;;;;;30.30;17.13;;;-3.80;97.80;;;;;;5049087;28;20216;-58
2023/02/07 06:34:21;;;;;;;28.60;16.43;;;-3.80;98.20;;;;;;5044037;28;20204;-57
2023/02/07 06:36:47;;;;;;;28.37;16.57;;;-3.80;97.50;;;;;;5048484;28;20181;-58
2023/02/07 06:39:13;;;;;;;31.97;16.20;;;-3.90;97.60;;;;;;5052506;28;20172;-57
2023/02/07 06:41:38;;;;;;;32.70;16.67;;;-3.90;97.40;;;;;;5043909;28;20211;-57
2023/02/07 06:44:04;;;;;;;25.00;14.20;;;-3.90;97.00;;;;;;5038026;28;20267;-58
2023/02/07 06:46:30;;;;;;;28.50;15.83;;;-4.00;97.00;;;;;;5047110;28;20205;-58
2023/02/07 06:48:55;;;;;;;27.43;15.27;;;-4.10;97.10;;;;;;5050446;28;20180;-58
2023/02/07 06:51:21;;;;;;;25.30;15.23;;;-4.00;96.80;;;;;;5047698;28;20204;-57
2023/02/07 06:53:47;;;;;;;30.77;17.03;;;-4.10;96.20;;;;;;5046659;28;20177;-58
2023/02/07 06:56:12;;;;;;;32.67;16.63;;;-4.20;95.70;;;;;;5052178;28;20164;-56
2023/02/07 06:58:38;;;;;;;27.43;15.13;;;-4.20;95.80;;;;;;5040036;28;20294;-58
2023/02/07 07:01:04;;;;;;;27.07;13.93;;;-4.30;95.70;;;;;;5051764;28;20260;-58
2023/02/07 07:03:30;;;;;;;27.10;16.17;;;-4.30;96.00;;;;;;5050362;28;20172;-57
2023/02/07 07:05:57;;;;;;;26.40;15.60;;;-4.30;96.50;;;;;;5049247;28;20433;-57
2023/02/07 07:08:23;;;;;;;28.70;14.97;;;-4.30;96.70;;;;;;5043399;28;20296;-57
2023/02/07 07:10:48;;;;;;;27.70;15.80;;;-4.30;96.80;;;;;;5044976;28;21825;-56
2023/02/07 07:13:14;;;;;;;35.23;16.73;;;-4.40;97.60;;;;;;5048866;28;20453;-58
2023/02/07 07:15:40;;;;;;;28.47;15.60;;;-4.40;98.60;;;;;;5048111;28;20218;-56
2023/02/07 07:18:06;;;;;;;32.27;17.10;;;-4.30;99.30;;;;;;5046834;28;20200;-55
2023/02/07 07:20:31;;;;;;;31.77;16.60;;;-4.30;99.70;;;;;;5047869;28;20187;-55
2023/02/07 07:22:57;;;;;;;26.83;15.07;;;-4.30;99.90;;;;;;5043033;28;20474;-57
2023/02/07 07:25:23;;;;;;;27.53;15.57;;;-4.20;99.80;;;;;;5049425;28;20186;-57
2023/02/07 07:27:48;;;;;;;30.90;17.07;;;-4.20;99.70;;;;;;5049022;28;20218;-57
2023/02/07 07:30:14;;;;;;;30.70;15.40;;;-4.20;99.90;;;;;;5042279;28;20185;-57
2023/02/07 07:32:40;;;;;;;27.87;15.40;;;-4.20;99.80;;;;;;5041587;28;20322;-57
2023/02/07 07:35:06;;;;;;;29.67;16.97;;;-4.20;99.70;;;;;;5052076;28;20181;-57
2023/02/07 07:37:32;;;;;;;28.50;16.43;;;-4.20;99.50;;;;;;5045040;28;20188;-56
2023/02/07 07:39:57;;;;;;;29.40;16.93;;;-4.10;99.80;;;;;;5040923;28;20468;-57
2023/02/07 07:42:23;;;;;;;29.80;16.17;;;-4.10;99.90;;;;;;5046213;28;20482;-57
2023/02/07 07:44:49;;;;;;;32.37;16.73;;;-4.10;99.90;;;;;;5048328;28;20805;-55
2023/02/07 07:47:14;;;;;;;32.00;16.83;;;-4.00;99.70;;;;;;5042305;28;20212;-56
2023/02/07 07:49:40;;;;;;;32.17;17.30;;;-4.00;99.40;;;;;;5037956;28;20176;-56
2023/02/07 07:52:06;;;;;;;31.53;16.10;;;-3.90;99.20;;;;;;5045603;28;20693;-56
2023/02/07 07:54:31;;;;;;;31.57;16.90;;;-3.80;99.40;;;;;;5048139;28;20187;-56
2023/02/07 07:56:57;;;;;;;37.57;17.17;;;-3.80;99.70;;;;;;5048834;28;20449;-56
2023/02/07 07:59:23;;;;;;;36.80;18.67;;;-3.80;99.40;;;;;;5043882;28;20183;-55
2023/02/07 08:01:48;;;;;;;36.00;16.90;;;-3.70;98.70;;;;;;5048306;28;20223;-57
2023/02/07 08:04:14;;;;;;;36.10;17.50;;;-3.70;97.90;;;;;;5041843;28;20263;-57
2023/02/07 08:06:40;;;;;;;26.90;16.07;;;-3.60;97.10;;;;;;5045180;28;20206;-58
2023/02/07 08:09:05;;;;;;;33.40;17.47;;;-3.70;97.30;;;;;;5042481;28;20698;-55
2023/02/07 08:11:31;;;;;;;31.03;15.53;;;-3.60;96.70;;;;;;5049178;28;20192;-56
2023/02/07 08:13:56;;;;;;;29.83;15.57;;;-3.60;96.90;;;;;;5050398;28;20179;-58
2023/02/07 08:16:22;;;;;;;35.00;16.33;;;-3.50;97.10;;;;;;5045536;28;20672;-55
2023/02/07 08:18:48;;;;;;;33.20;17.50;;;-3.50;97.10;;;;;;5048886;28;20180;-56
2023/02/07 08:21:13;;;;;;;30.83;16.67;;;-3.40;96.90;;;;;;5046370;28;20209;-56
2023/02/07 08:23:39;;;;;;;31.53;15.87;;;-3.40;96.50;;;;;;5049140;28;20258;-57
2023/02/07 08:26:06;;;;;;;33.30;18.20;;;-3.40;96.20;;;;;;5037086;28;20190;-55
2023/02/07 08:28:32;;;;;;;30.57;15.37;;;-3.30;96.60;;;;;;5048721;28;20269;-57
2023/02/07 08:31:03;;;;;;;34.50;17.20;;;-3.30;96.70;;;;;;5041338;28;20489;-58
2023/02/07 08:33:29;;;;;;;29.93;16.73;;;-3.20;96.40;;;;;;5046501;28;20492;-57
2023/02/07 08:35:55;;;;;;;26.60;15.17;;;-3.20;96.70;;;;;;5046062;28;20466;-57
2023/02/07 08:38:21;;;;;;;29.97;17.47;;;-3.10;95.30;;;;;;5044985;28;20486;-58
2023/02/07 08:40:46;;;;;;;28.27;15.33;;;-3.10;95.60;;;;;;5051470;28;20436;-57
2023/02/07 08:43:13;;;;;;;32.70;17.80;;;-3.10;95.50;;;;;;5045398;28;20195;-57
2023/02/07 08:45:40;;;;;;;33.20;16.47;;;-3.00;95.00;;;;;;5044779;28;20182;-57
2023/02/07 08:48:06;;;;;;;29.57;15.70;;;-3.00;94.90;;;;;;5046385;28;20465;-58
2023/02/07 08:50:31;;;;;;;22.93;15.00;;;-3.00;94.90;;;;;;5050302;28;20410;-57
2023/02/07 08:52:57;;;;;;;28.27;15.43;;;-2.90;94.70;;;;;;5046185;28;20248;-58
2023/02/07 08:55:23;;;;;;;29.67;16.17;;;-2.90;94.20;;;;;;5046925;28;20172;-57
2023/02/07 08:57:49;;;;;;;29.00;15.80;;;-2.90;94.20;;;;;;5048319;28;20619;-57
2023/02/07 09:00:15;;;;;;;27.73;16.67;;;-2.90;94.40;;;;;;5042389;28;20173;-57
2023/02/07 09:02:42;;;;;;;33.43;17.03;;;-2.80;94.60;;;;;;5046978;28;20219;-57
2023/02/07 09:05:08;;;;;;;28.03;16.07;;;-2.80;94.30;;;;;;5044692;28;20446;-58
2023/02/07 09:07:34;;;;;;;30.70;17.73;;;-2.70;94.00;;;;;;5045076;28;20497;-57
2023/02/07 09:09:59;;;;;;;32.13;16.00;;;-2.70;93.70;;;;;;5048145;28;20457;-57
2023/02/07 09:12:25;;;;;;;36.40;15.97;;;-2.70;93.50;;;;;;5042190;28;20224;-59
2023/02/07 09:14:51;;;;;;;28.00;15.40;;;-2.60;93.40;;;;;;5044540;28;20179;-56
2023/02/07 09:17:16;;;;;;;28.33;16.27;;;-2.60;93.70;;;;;;5042730;28;20204;-58
2023/02/07 09:19:42;;;;;;;30.20;15.30;;;-2.50;93.10;;;;;;5050577;28;20190;-58
2023/02/07 09:22:08;;;;;;;28.73;15.83;;;-2.40;92.40;;;;;;5053596;28;20246;-57
2023/02/07 09:24:33;;;;;;;30.80;16.80;;;-2.30;92.00;;;;;;5052661;28;20172;-57
2023/02/07 09:27:00;;;;;;;33.70;15.77;;;-2.20;91.90;;;;;;5047736;28;20215;-56
2023/02/07 09:29:25;;;;;;;27.07;16.00;;;-2.10;91.20;;;;;;5053944;28;20206;-56
2023/02/07 09:31:51;;;;;;;27.97;15.00;;;-2.00;90.60;;;;;;5048899;28;20474;-56
2023/02/07 09:34:18;;;;;;;29.10;16.87;;;-1.90;90.20;;;;;;5044904;28;20254;-56
2023/02/07 09:36:44;;;;;;;26.73;15.60;;;-1.80;89.60;;;;;;5050134;28;20181;-56
2023/02/07 09:39:10;;;;;;;31.10;16.70;;;-1.70;88.80;;;;;;5054285;28;20418;-55
2023/02/07 09:41:41;;;;;;;24.90;15.20;;;-1.60;88.20;;;;;;5037744;28;20467;-57
2023/02/07 09:44:13;;;;;;;30.17;16.67;;;-1.60;87.10;;;;;;5047852;28;20447;-57
2023/02/07 09:46:48;;;;;;;29.60;17.07;;;-1.50;87.20;;;;;;5041884;28;21167;-56
2023/02/07 09:49:37;;;;;;;32.17;16.43;;;-1.40;86.10;;;;;;5055521;28;20402;-56
2023/02/07 09:52:09;;;;;;;26.40;15.93;;;-1.30;85.20;;;;;;5052987;28;20535;-56
2023/02/07 09:54:39;;;;;;;28.20;15.63;;;-1.20;84.40;;;;;;5049081;28;20455;-57
2023/02/07 09:57:15;;;;;;;30.60;16.50;;;-1.10;83.70;;;;;;5047891;28;20435;-57
2023/02/07 09:59:51;;;;;;;29.37;15.23;;;-1.00;82.00;;;;;;5043787;28;20515;-56
2023/02/07 10:02:43;;;;;;;30.27;16.40;;;-1.00;82.10;;;;;;5037598;28;20457;-57
2023/02/07 10:05:19;;;;;;;31.80;15.93;;;-0.90;81.70;;;;;;5046984;28;20441;-55
2023/02/07 10:07:46;;;;;;;26.87;15.90;;;-0.80;80.10;;;;;;5052522;28;20467;-57
2023/02/07 10:10:26;;;;;;;28.10;15.63;;;-0.70;80.10;;;;;;5049290;28;20440;-56
2023/02/07 10:13:00;;;;;;;26.23;16.73;;;-0.70;80.10;;;;;;5050232;28;20470;-57
2023/02/07 10:15:34;;;;;;;29.30;15.60;;;-0.60;77.00;;;;;;5049772;28;20434;-60
2023/02/07 10:18:15;;;;;;;26.57;16.97;;;-0.50;78.10;;;;;;5047434;28;20408;-58
2023/02/07 10:20:48;;;;;;;30.90;16.40;;;-0.50;76.80;;;;;;5045433;28;20467;-54
2023/02/07 10:23:34;;;;;;;30.10;17.87;;;-0.40;77.00;;;;;;5050466;28;20452;-53
2023/02/07 10:26:35;;;;;;;34.93;16.70;;;-0.40;76.10;;;;;;5041590;28;20516;-54
2023/02/07 10:29:38;;;;;;;32.03;18.23;;;-0.30;76.60;;;;;;5046069;28;20542;-51
2023/02/07 10:34:38;;;;;;;27.93;16.03;;;-0.10;75.80;;;;;;5017899;28;20470;-52
2023/02/07 10:37:16;;;;;;;27.07;16.17;;;0.00;75.50;;;;;;5023823;28;20431;-53
2023/02/07 10:39:51;;;;;;;29.27;15.57;;;0.10;73.90;;;;;;5030515;28;20421;-55
2023/02/07 10:42:19;;;;;;;27.13;16.90;;;0.10;73.80;;;;;;5039064;28;20949;-53
2023/02/07 10:44:45;;;;;;;25.80;15.83;;;0.30;74.40;;;;;;5029997;28;20641;-54
2023/02/07 10:47:17;;;;;;;28.33;17.03;;;0.40;71.50;;;;;;5021389;28;20468;-54
2023/02/07 10:49:47;;;;;;;24.23;15.03;;;0.50;69.30;;;;;;5030453;28;20409;-56
2023/02/07 10:52:26;;;;;;;31.13;16.93;;;0.60;69.20;;;;;;5029868;28;20439;-55
2023/02/07 10:54:54;;;;;;;28.43;17.00;;;0.60;70.30;;;;;;5027615;28;20909;-52
2023/02/07 10:57:21;;;;;;;29.47;16.90;;;0.70;70.10;;;;;;5032413;28;20445;-57
2023/02/07 10:59:49;;;;;;;29.43;16.87;;;0.80;68.60;;;;;;5026283;28;20440;-51
2023/02/07 11:02:32;;;;;;;28.20;15.70;;;0.90;69.40;;;;;;5030907;28;20449;-52
2023/02/07 11:05:28;;;;;;;32.97;18.70;;;0.90;69.70;;;;;;5027113;28;20475;-54
2023/02/07 11:08:04;;;;;;;29.83;17.07;;;1.00;69.30;;;;;;5023573;28;20464;-53
2023/02/07 11:10:36;;;;;;;28.73;16.20;;;1.10;67.30;;;;;;5025394;28;20840;-56
2023/02/07 11:13:03;;;;;;;28.47;16.63;;;1.10;66.20;;;;;;5025215;28;20514;-56
2023/02/07 11:15:48;;;;;;;25.53;16.13;;;1.20;65.90;;;;;;5020526;28;20434;-53
2023/02/07 11:18:40;;;;;;;27.20;14.50;;;1.20;66.60;;;;;;5012423;28;20535;-54
2023/02/07 11:21:24;;;;;;;25.80;15.60;;;1.30;66.30;;;;;;5021925;28;20527;-58
2023/02/07 11:23:52;;;;;;;28.10;15.87;;;1.40;66.40;;;;;;5032699;28;20770;-54
2023/02/07 11:26:19;;;;;;;29.43;16.57;;;1.50;67.00;;;;;;5018095;28;20424;-57
2023/02/07 11:28:46;;;;;;;30.53;16.63;;;1.70;68.20;;;;;;5019748;28;20440;-54
2023/02/07 11:31:16;;;;;;;28.07;16.70;;;1.90;65.80;;;;;;5022578;28;20469;-59
2023/02/07 11:33:42;;;;;;;30.90;16.40;;;2.00;65.10;;;;;;5026142;28;20466;-57
2023/02/07 11:36:29;;;;;;;25.70;15.97;;;2.20;64.80;;;;;;5022989;28;20559;-58
2023/02/07 11:38:57;;;;;;;29.23;15.10;;;2.40;63.70;;;;;;5021032;28;20536;-59
2023/02/07 11:41:28;;;;;;;26.33;16.10;;;2.50;62.70;;;;;;5025477;28;21412;-62
2023/02/07 11:44:01;;;;;;;32.90;15.80;;;2.60;62.20;;;;;;5019168;28;20513;-60
2023/02/07 11:46:43;;;;;;;20.07;13.33;;;2.80;61.80;;;;;;5021447;28;20465;-61
2023/02/07 11:49:36;;;;;;;25.73;13.80;;;3.00;60.70;;;;;;5013621;28;20445;-61
2023/02/07 11:52:03;;;;;;;27.97;15.60;;;3.10;59.10;;;;;;5023837;28;20441;-61
2023/02/07 11:54:30;;;;;;;26.77;16.03;;;3.20;58.60;;;;;;5028628;28;21150;-60
2023/02/07 11:57:05;;;;;;;27.63;15.70;;;3.30;58.40;;;;;;5019624;28;20509;-61
2023/02/07 11:59:33;;;;;;;27.73;14.80;;;3.50;59.30;;;;;;5020965;28;20450;-61
2023/02/07 12:02:13;;;;;;;24.07;14.77;;;3.70;57.90;;;;;;5021053;28;20469;-62
2023/02/07 12:04:40;;;;;;;19.47;12.77;;;3.90;57.80;;;;;;5033501;28;20476;-61
2023/02/07 12:07:24;;;;;;;29.33;14.17;;;4.10;57.10;;;;;;5034918;28;21105;-62
2023/02/07 12:09:59;;;;;;;21.00;13.47;;;4.30;56.70;;;;;;5026770;28;21019;-61
2023/02/07 12:12:46;;;;;;;25.10;13.83;;;4.60;55.00;;;;;;5025611;28;20444;-62
2023/02/07 12:15:24;;;;;;;20.40;13.30;;;4.90;54.10;;;;;;5026652;28;20421;-60
2023/02/07 12:18:16;;;;;;;25.30;14.87;;;5.20;53.80;;;;;;5016585;28;20491;-63
2023/02/07 12:21:03;;;;;;;15.77;11.00;;;5.50;53.70;;;;;;5025171;28;20442;-60
2023/02/07 12:23:44;;;;;;;19.77;11.83;;;5.80;53.30;;;;;;5039169;28;20488;-60
2023/02/07 12:26:21;;;;;;;19.87;12.50;;;6.00;52.50;;;;;;5026015;28;20521;-55
2023/02/07 12:29:05;;;;;;;15.20;11.00;;;6.20;52.20;;;;;;5024504;28;20545;-57
2023/02/07 12:31:54;;;;;;;17.40;11.27;;;6.40;51.50;;;;;;5031102;28;20441;-58
2023/02/07 12:34:32;;;;;;;15.70;10.70;;;6.60;51.00;;;;;;5018347;28;20462;-62
2023/02/07 12:37:10;;;;;;;15.83;11.00;;;7.10;50.20;;;;;;5026907;28;20430;-61
2023/02/07 12:39:44;;;;;;;17.97;11.87;;;7.50;48.90;;;;;;5029278;28;21119;-62
2023/02/07 12:42:18;;;;;;;15.53;10.23;;;7.90;48.40;;;;;;5018735;28;20437;-63
2023/02/07 12:44:54;;;;;;;13.87;10.07;;;8.40;47.40;;;;;;5014909;28;20443;-62
2023/02/07 12:47:32;;;;;;;15.27;10.03;;;8.80;46.40;;;;;;5015527;28;20461;-63